createdAt,value
2022-08-29T07:40:37.673Z,99.90
2022-08-29T07:43:11.102Z,99.90
2022-08-29T07:45:40.037Z,99.90
2022-08-29T07:48:19.930Z,99.90
2022-08-29T07:50:52.496Z,99.90
2022-08-29T07:53:22.140Z,99.90
2022-08-29T07:55:49.223Z,99.90
2022-08-29T07:58:16.336Z,99.90
2022-08-29T08:00:43.365Z,99.90
2022-08-29T08:03:11.248Z,99.80
2022-08-29T08:05:38.370Z,98.70
2022-08-29T08:08:09.033Z,97.60
2022-08-29T08:10:42.574Z,97.40
2022-08-29T08:13:09.562Z,97.60
2022-08-29T08:15:38.979Z,97.30
2022-08-29T08:18:06.487Z,95.90
2022-08-29T08:20:33.895Z,93.80
2022-08-29T08:23:00.880Z,92.50
2022-08-29T08:25:28.109Z,92.10
2022-08-29T08:27:55.889Z,92.00
2022-08-29T08:30:22.821Z,93.50
2022-08-29T08:32:54.914Z,93.50
2022-08-29T08:35:22.978Z,91.60
2022-08-29T08:37:50.008Z,90.30
2022-08-29T08:40:23.135Z,89.70
2022-08-29T08:42:50.734Z,88.30
2022-08-29T08:45:26.794Z,84.70
2022-08-29T08:48:02.944Z,83.80
2022-08-29T08:50:54.963Z,81.90
2022-08-29T08:53:40.813Z,77.20
2022-08-29T08:56:25.845Z,75.90
2022-08-29T08:58:57.817Z,74.00
2022-08-29T09:01:56.478Z,74.20
2022-08-29T09:04:33.259Z,75.00
2022-08-29T09:07:18.179Z,69.50
2022-08-29T09:10:13.987Z,69.00
2022-08-29T09:12:51.402Z,70.40
2022-08-29T09:15:23.572Z,65.40
2022-08-29T09:17:52.813Z,62.80
2022-08-29T09:20:28.968Z,61.20
2022-08-29T09:23:27.321Z,63.40
2022-08-29T09:25:54.378Z,65.20
2022-08-29T09:28:21.764Z,63.90
2022-08-29T09:31:16.750Z,61.90
2022-08-29T09:33:50.507Z,60.00
2022-08-29T09:36:42.060Z,60.40
2022-08-29T09:39:28.562Z,59.90
2022-08-29T09:41:59.872Z,58.10
2022-08-29T09:44:26.654Z,55.60
2022-08-29T09:47:13.179Z,56.30
2022-08-29T09:49:59.371Z,56.10
2022-08-29T09:52:26.278Z,57.10
2022-08-29T09:54:53.180Z,56.80
2022-08-29T09:57:25.073Z,55.90
2022-08-29T10:00:13.711Z,59.90
2022-08-29T10:02:46.388Z,64.70
2022-08-29T10:05:35.696Z,64.30
2022-08-29T10:08:05.747Z,63.50
2022-08-29T10:10:36.496Z,64.80
2022-08-29T10:13:29.178Z,67.10
2022-08-29T10:16:01.776Z,66.40
2022-08-29T10:18:49.917Z,63.80
2022-08-29T10:21:27.485Z,60.90
2022-08-29T10:23:59.882Z,59.00
2022-08-29T10:26:32.603Z,59.60
2022-08-29T10:29:31.875Z,57.00
2022-08-29T10:32:16.932Z,57.00
2022-08-29T10:35:02.003Z,55.60
2022-08-29T10:37:49.845Z,53.90
2022-08-29T10:40:49.491Z,53.60
2022-08-29T10:43:31.944Z,55.70
2022-08-29T10:46:16.594Z,58.00
2022-08-29T10:49:13.658Z,59.20
2022-08-29T10:52:05.804Z,58.00
2022-08-29T10:54:37.655Z,56.30
2022-08-29T10:57:06.481Z,55.90
2022-08-29T10:59:36.961Z,57.20
2022-08-29T11:02:27.355Z,59.90
2022-08-29T11:04:58.144Z,63.70
2022-08-29T11:07:28.603Z,67.70
2022-08-29T11:10:00.922Z,69.90
2022-08-29T11:12:33.981Z,69.80
2022-08-29T11:15:31.072Z,70.40
2022-08-29T11:18:15.528Z,71.20
2022-08-29T11:21:03.906Z,72.10
2022-08-29T11:23:42.949Z,73.40
2022-08-29T11:26:18.558Z,73.50
2022-08-29T11:29:07.372Z,72.70
2022-08-29T11:32:02.038Z,71.80
2022-08-29T11:34:40.676Z,71.00
2022-08-29T11:37:38.531Z,67.50
2022-08-29T11:41:26.255Z,62.90
2022-08-29T11:43:39.714Z,58.80
2022-08-29T11:46:10.024Z,51.90
2022-08-29T11:48:47.229Z,51.50
2022-08-29T11:51:36.554Z,50.50
2022-08-29T11:54:25.328Z,49.60
2022-08-29T11:57:01.627Z,49.50
2022-08-29T11:59:54.715Z,48.50
2022-08-29T12:02:27.982Z,47.20
2022-08-29T12:05:03.343Z,47.90
2022-08-29T12:07:49.047Z,48.80
2022-08-29T12:10:24.660Z,48.20
2022-08-29T12:13:03.483Z,48.20
2022-08-29T12:15:30.260Z,47.40
2022-08-29T12:18:02.431Z,46.20
2022-08-29T12:20:30.349Z,45.20
2022-08-29T12:23:15.622Z,44.40
2022-08-29T12:26:04.100Z,42.40
2022-08-29T12:28:47.694Z,42.00
2022-08-29T12:31:51.446Z,42.10
2022-08-29T12:34:57.723Z,46.50
2022-08-29T12:37:36.538Z,51.90
2022-08-29T12:40:34.541Z,53.10
2022-08-29T12:43:29.993Z,52.60
2022-08-29T12:45:57.868Z,53.40
2022-08-29T12:48:30.177Z,53.30
2022-08-29T12:50:57.106Z,53.10
2022-08-29T12:53:26.287Z,51.90
2022-08-29T12:55:58.150Z,50.20
2022-08-29T12:58:36.703Z,48.00
2022-08-29T13:01:06.872Z,47.30
2022-08-29T13:03:33.776Z,45.50
2022-08-29T13:06:08.411Z,42.90
2022-08-29T13:08:39.362Z,42.80
2022-08-29T13:11:09.968Z,44.20
2022-08-29T13:13:37.992Z,45.60
2022-08-29T13:16:08.545Z,47.80
2022-08-29T13:18:53.617Z,49.10
2022-08-29T13:21:32.369Z,49.60
2022-08-29T13:24:13.541Z,51.70
2022-08-29T13:26:50.655Z,53.10
2022-08-29T13:29:38.955Z,53.40
2022-08-29T13:32:26.552Z,51.50
2022-08-29T13:35:04.044Z,49.80
2022-08-29T13:38:12.395Z,49.00
2022-08-29T13:40:56.819Z,45.60
2022-08-29T13:43:45.853Z,45.40
2022-08-29T13:46:18.308Z,45.00
2022-08-29T13:48:45.503Z,44.40
2022-08-29T13:51:12.731Z,44.20
2022-08-29T13:53:39.804Z,43.90
2022-08-29T13:56:22.452Z,42.30
2022-08-29T13:58:49.630Z,42.90
2022-08-29T14:01:30.171Z,43.30
2022-08-29T14:04:01.275Z,43.60
2022-08-29T14:06:33.817Z,44.50
2022-08-29T14:09:01.937Z,45.80
2022-08-29T14:11:29.167Z,44.20
2022-08-29T14:13:56.000Z,43.70
2022-08-29T14:16:23.292Z,43.60
2022-08-29T14:18:50.212Z,43.60
2022-08-29T14:21:17.532Z,44.00
2022-08-29T14:23:44.392Z,43.60
2022-08-29T14:26:11.317Z,44.90
2022-08-29T14:28:40.771Z,46.30
2022-08-29T14:31:09.000Z,46.20
2022-08-29T14:33:35.923Z,45.70
2022-08-29T14:36:03.509Z,46.70
2022-08-29T14:38:31.188Z,46.40
2022-08-29T14:40:58.318Z,48.20
2022-08-29T14:43:25.200Z,47.80
2022-08-29T14:45:52.069Z,47.60
2022-08-29T14:48:19.126Z,48.60
2022-08-29T14:50:46.087Z,50.00
2022-08-29T14:53:12.902Z,50.10
2022-08-29T14:55:39.883Z,52.10
2022-08-29T14:58:06.728Z,53.50
2022-08-29T15:00:34.138Z,53.60
2022-08-29T15:03:01.499Z,53.10
2022-08-29T15:05:28.737Z,52.50
2022-08-29T15:07:55.797Z,51.80
2022-08-29T15:10:24.679Z,50.30
2022-08-29T15:12:52.255Z,50.10
2022-08-29T15:15:21.364Z,50.00
2022-08-29T15:17:48.202Z,49.00
2022-08-29T15:23:02.026Z,48.60
2022-08-29T15:25:28.931Z,49.70
2022-08-29T15:27:55.742Z,49.80
2022-08-29T15:30:25.607Z,50.30
2022-08-29T15:32:52.639Z,50.10
2022-08-29T15:35:19.785Z,50.50
2022-08-29T15:37:46.649Z,50.50
2022-08-29T15:40:14.405Z,50.10
2022-08-29T15:42:41.504Z,50.20
2022-08-29T15:45:10.586Z,50.20
2022-08-29T15:47:39.427Z,50.70
2022-08-29T15:50:08.318Z,50.00
2022-08-29T15:52:36.394Z,48.80
2022-08-29T15:55:04.483Z,48.30
2022-08-29T15:57:31.371Z,48.50
2022-08-29T15:59:59.056Z,49.50
2022-08-29T16:02:33.198Z,52.00
2022-08-29T16:05:02.095Z,53.70
2022-08-29T16:07:38.552Z,55.00
2022-08-29T16:20:50.388Z,59.60
2022-08-29T16:35:12.758Z,62.00
2022-08-29T16:45:46.630Z,63.00
2022-08-29T16:53:02.429Z,62.60
2022-08-29T17:12:32.879Z,66.20
2022-08-29T17:19:51.860Z,68.70
